sensor_id;sensor_type;location;lat;lon;timestamp;P1;durP1;ratioP1;P2;durP2;ratioP2
69253;SDS011;56364;41.816;12.448;2023-01-28T00:01:20;12.65;;;3.75;;
69253;SDS011;56364;41.816;12.448;2023-01-28T00:03:49;8.77;;;3.72;;
69253;SDS011;56364;41.816;12.448;2023-01-28T00:06:16;11.95;;;3.58;;
69253;SDS011;56364;41.816;12.448;2023-01-28T00:08:45;10.65;;;3.22;;
69253;SDS011;56364;41.816;12.448;2023-01-28T00:11:12;12.55;;;4.07;;
69253;SDS011;56364;41.816;12.448;2023-01-28T00:13:38;11.15;;;4.07;;
69253;SDS011;56364;41.816;12.448;2023-01-28T00:16:05;10.98;;;3.92;;
69253;SDS011;56364;41.816;12.448;2023-01-28T00:18:32;11.82;;;3.60;;
69253;SDS011;56364;41.816;12.448;2023-01-28T00:20:59;8.73;;;3.33;;
69253;SDS011;56364;41.816;12.448;2023-01-28T00:23:30;13.02;;;3.45;;
69253;SDS011;56364;41.816;12.448;2023-01-28T00:25:59;11.38;;;4.28;;
69253;SDS011;56364;41.816;12.448;2023-01-28T00:28:26;7.80;;;3.25;;
69253;SDS011;56364;41.816;12.448;2023-01-28T00:30:52;10.95;;;3.95;;
69253;SDS011;56364;41.816;12.448;2023-01-28T00:33:18;15.02;;;3.55;;
69253;SDS011;56364;41.816;12.448;2023-01-28T00:35:44;9.88;;;3.28;;
69253;SDS011;56364;41.816;12.448;2023-01-28T00:38:11;4.32;;;2.15;;
69253;SDS011;56364;41.816;12.448;2023-01-28T00:40:37;8.23;;;3.08;;
69253;SDS011;56364;41.816;12.448;2023-01-28T00:43:03;10.60;;;2.80;;
69253;SDS011;56364;41.816;12.448;2023-01-28T00:45:29;8.02;;;3.03;;
69253;SDS011;56364;41.816;12.448;2023-01-28T00:47:55;8.68;;;2.90;;
69253;SDS011;56364;41.816;12.448;2023-01-28T00:50:21;6.75;;;2.83;;
69253;SDS011;56364;41.816;12.448;2023-01-28T00:52:47;9.00;;;3.00;;
69253;SDS011;56364;41.816;12.448;2023-01-28T00:55:13;7.82;;;3.00;;
69253;SDS011;56364;41.816;12.448;2023-01-28T00:57:39;7.57;;;3.05;;
69253;SDS011;56364;41.816;12.448;2023-01-28T01:00:05;6.40;;;3.33;;
69253;SDS011;56364;41.816;12.448;2023-01-28T01:04:58;7.57;;;2.50;;
69253;SDS011;56364;41.816;12.448;2023-01-28T01:07:25;10.32;;;3.13;;
69253;SDS011;56364;41.816;12.448;2023-01-28T01:09:59;8.07;;;3.17;;
69253;SDS011;56364;41.816;12.448;2023-01-28T01:14:51;7.75;;;3.00;;
69253;SDS011;56364;41.816;12.448;2023-01-28T01:17:17;5.45;;;2.72;;
69253;SDS011;56364;41.816;12.448;2023-01-28T01:19:44;5.32;;;2.17;;
69253;SDS011;56364;41.816;12.448;2023-01-28T01:22:10;16.55;;;3.47;;
69253;SDS011;56364;41.816;12.448;2023-01-28T01:24:36;7.50;;;2.92;;
69253;SDS011;56364;41.816;12.448;2023-01-28T01:27:02;9.82;;;3.15;;
69253;SDS011;56364;41.816;12.448;2023-01-28T01:29:30;8.00;;;2.63;;
69253;SDS011;56364;41.816;12.448;2023-01-28T01:31:58;9.13;;;3.80;;
69253;SDS011;56364;41.816;12.448;2023-01-28T01:34:24;7.80;;;3.05;;
69253;SDS011;56364;41.816;12.448;2023-01-28T01:36:50;5.22;;;2.25;;
69253;SDS011;56364;41.816;12.448;2023-01-28T01:39:16;6.90;;;2.65;;
69253;SDS011;56364;41.816;12.448;2023-01-28T01:41:42;11.98;;;3.70;;
69253;SDS011;56364;41.816;12.448;2023-01-28T01:46:54;6.60;;;2.35;;
69253;SDS011;56364;41.816;12.448;2023-01-28T01:49:22;5.70;;;2.88;;
69253;SDS011;56364;41.816;12.448;2023-01-28T01:52:08;6.78;;;2.58;;
69253;SDS011;56364;41.816;12.448;2023-01-28T01:54:35;7.72;;;2.08;;
69253;SDS011;56364;41.816;12.448;2023-01-28T01:57:02;7.97;;;2.90;;
69253;SDS011;56364;41.816;12.448;2023-01-28T02:01:55;5.85;;;2.38;;
69253;SDS011;56364;41.816;12.448;2023-01-28T02:04:30;8.98;;;1.85;;
69253;SDS011;56364;41.816;12.448;2023-01-28T02:06:57;6.57;;;2.78;;
69253;SDS011;56364;41.816;12.448;2023-01-28T02:09:25;8.23;;;2.83;;
69253;SDS011;56364;41.816;12.448;2023-01-28T02:11:53;10.73;;;2.95;;
69253;SDS011;56364;41.816;12.448;2023-01-28T02:14:20;4.38;;;1.75;;
69253;SDS011;56364;41.816;12.448;2023-01-28T02:16:47;5.80;;;2.60;;
69253;SDS011;56364;41.816;12.448;2023-01-28T02:19:13;4.38;;;2.05;;
69253;SDS011;56364;41.816;12.448;2023-01-28T02:34:34;4.45;;;1.95;;
69253;SDS011;56364;41.816;12.448;2023-01-28T02:37:08;7.50;;;2.70;;
69253;SDS011;56364;41.816;12.448;2023-01-28T02:42:06;3.65;;;2.15;;
69253;SDS011;56364;41.816;12.448;2023-01-28T02:44:33;6.35;;;2.25;;
69253;SDS011;56364;41.816;12.448;2023-01-28T03:07:23;4.88;;;2.10;;
69253;SDS011;56364;41.816;12.448;2023-01-28T03:09:51;4.78;;;2.00;;
69253;SDS011;56364;41.816;12.448;2023-01-28T03:12:18;6.70;;;2.55;;
69253;SDS011;56364;41.816;12.448;2023-01-28T03:15:21;8.10;;;2.75;;
69253;SDS011;56364;41.816;12.448;2023-01-28T03:18:12;7.18;;;2.80;;
69253;SDS011;56364;41.816;12.448;2023-01-28T03:23:53;9.30;;;2.13;;
69253;SDS011;56364;41.816;12.448;2023-01-28T03:26:48;9.35;;;2.10;;
69253;SDS011;56364;41.816;12.448;2023-01-28T03:29:34;6.07;;;1.88;;
69253;SDS011;56364;41.816;12.448;2023-01-28T03:32:20;7.15;;;1.83;;
69253;SDS011;56364;41.816;12.448;2023-01-28T03:35:06;3.63;;;1.73;;
69253;SDS011;56364;41.816;12.448;2023-01-28T03:37:52;5.80;;;1.98;;
69253;SDS011;56364;41.816;12.448;2023-01-28T03:40:19;4.78;;;1.90;;
69253;SDS011;56364;41.816;12.448;2023-01-28T03:42:45;4.95;;;2.13;;
69253;SDS011;56364;41.816;12.448;2023-01-28T03:45:14;6.07;;;2.17;;
69253;SDS011;56364;41.816;12.448;2023-01-28T03:47:41;6.80;;;2.28;;
69253;SDS011;56364;41.816;12.448;2023-01-28T03:57:56;4.22;;;2.10;;
69253;SDS011;56364;41.816;12.448;2023-01-28T04:00:25;5.13;;;2.00;;
69253;SDS011;56364;41.816;12.448;2023-01-28T04:02:51;4.05;;;1.80;;
69253;SDS011;56364;41.816;12.448;2023-01-28T04:05:17;5.03;;;2.00;;
69253;SDS011;56364;41.816;12.448;2023-01-28T04:07:44;2.15;;;1.83;;
69253;SDS011;56364;41.816;12.448;2023-01-28T04:10:10;6.28;;;2.35;;
69253;SDS011;56364;41.816;12.448;2023-01-28T04:12:37;6.53;;;2.00;;
69253;SDS011;56364;41.816;12.448;2023-01-28T04:15:04;3.47;;;1.70;;
69253;SDS011;56364;41.816;12.448;2023-01-28T04:17:43;5.60;;;2.15;;
69253;SDS011;56364;41.816;12.448;2023-01-28T04:20:10;5.47;;;1.92;;
69253;SDS011;56364;41.816;12.448;2023-01-28T04:22:39;5.28;;;2.28;;
69253;SDS011;56364;41.816;12.448;2023-01-28T04:30:20;6.07;;;2.17;;
69253;SDS011;56364;41.816;12.448;2023-01-28T04:32:47;5.15;;;1.98;;
69253;SDS011;56364;41.816;12.448;2023-01-28T04:35:14;7.53;;;2.97;;
69253;SDS011;56364;41.816;12.448;2023-01-28T04:37:41;4.78;;;2.05;;
69253;SDS011;56364;41.816;12.448;2023-01-28T04:40:07;5.88;;;2.40;;
69253;SDS011;56364;41.816;12.448;2023-01-28T04:42:33;6.35;;;1.77;;
69253;SDS011;56364;41.816;12.448;2023-01-28T04:44:59;3.83;;;1.83;;
69253;SDS011;56364;41.816;12.448;2023-01-28T04:47:26;12.25;;;2.40;;
69253;SDS011;56364;41.816;12.448;2023-01-28T04:49:52;6.00;;;2.08;;
69253;SDS011;56364;41.816;12.448;2023-01-28T04:52:18;5.25;;;2.30;;
69253;SDS011;56364;41.816;12.448;2023-01-28T04:54:44;11.45;;;3.05;;
69253;SDS011;56364;41.816;12.448;2023-01-28T04:57:12;6.18;;;2.42;;
69253;SDS011;56364;41.816;12.448;2023-01-28T04:59:39;6.50;;;2.10;;
69253;SDS011;56364;41.816;12.448;2023-01-28T05:02:05;4.57;;;1.98;;
69253;SDS011;56364;41.816;12.448;2023-01-28T05:04:31;6.50;;;1.73;;
69253;SDS011;56364;41.816;12.448;2023-01-28T05:06:57;4.72;;;2.03;;
69253;SDS011;56364;41.816;12.448;2023-01-28T05:09:23;4.20;;;1.90;;
69253;SDS011;56364;41.816;12.448;2023-01-28T05:11:49;5.43;;;2.08;;
69253;SDS011;56364;41.816;12.448;2023-01-28T05:14:15;7.68;;;1.70;;
69253;SDS011;56364;41.816;12.448;2023-01-28T05:16:41;5.97;;;2.47;;
69253;SDS011;56364;41.816;12.448;2023-01-28T05:19:07;5.32;;;1.98;;
69253;SDS011;56364;41.816;12.448;2023-01-28T05:21:33;3.47;;;2.08;;
69253;SDS011;56364;41.816;12.448;2023-01-28T05:23:59;5.15;;;2.38;;
69253;SDS011;56364;41.816;12.448;2023-01-28T05:26:25;3.65;;;1.88;;
69253;SDS011;56364;41.816;12.448;2023-01-28T05:28:51;7.25;;;2.67;;
69253;SDS011;56364;41.816;12.448;2023-01-28T05:31:17;5.22;;;2.20;;
69253;SDS011;56364;41.816;12.448;2023-01-28T05:33:44;5.93;;;2.40;;
69253;SDS011;56364;41.816;12.448;2023-01-28T05:36:10;3.58;;;2.10;;
69253;SDS011;56364;41.816;12.448;2023-01-28T05:38:36;9.85;;;2.22;;
69253;SDS011;56364;41.816;12.448;2023-01-28T05:41:02;3.72;;;1.90;;
69253;SDS011;56364;41.816;12.448;2023-01-28T05:43:28;3.88;;;2.03;;
69253;SDS011;56364;41.816;12.448;2023-01-28T05:45:54;4.75;;;1.98;;
69253;SDS011;56364;41.816;12.448;2023-01-28T05:48:20;3.42;;;1.58;;
69253;SDS011;56364;41.816;12.448;2023-01-28T05:50:46;4.50;;;1.63;;
69253;SDS011;56364;41.816;12.448;2023-01-28T05:53:12;3.72;;;1.80;;
69253;SDS011;56364;41.816;12.448;2023-01-28T05:55:38;2.92;;;1.33;;
69253;SDS011;56364;41.816;12.448;2023-01-28T05:58:04;5.15;;;1.92;;
69253;SDS011;56364;41.816;12.448;2023-01-28T06:00:30;5.72;;;2.20;;
69253;SDS011;56364;41.816;12.448;2023-01-28T06:02:56;3.70;;;1.80;;
69253;SDS011;56364;41.816;12.448;2023-01-28T06:05:22;8.88;;;2.33;;
69253;SDS011;56364;41.816;12.448;2023-01-28T06:07:48;4.10;;;1.80;;
69253;SDS011;56364;41.816;12.448;2023-01-28T06:10:15;7.70;;;2.25;;
69253;SDS011;56364;41.816;12.448;2023-01-28T06:12:44;3.50;;;1.67;;
69253;SDS011;56364;41.816;12.448;2023-01-28T06:15:10;6.15;;;1.60;;
69253;SDS011;56364;41.816;12.448;2023-01-28T06:17:36;6.10;;;1.98;;
69253;SDS011;56364;41.816;12.448;2023-01-28T06:20:02;4.93;;;2.15;;
69253;SDS011;56364;41.816;12.448;2023-01-28T06:22:28;1.88;;;1.30;;
69253;SDS011;56364;41.816;12.448;2023-01-28T06:24:54;4.50;;;2.00;;
69253;SDS011;56364;41.816;12.448;2023-01-28T06:27:20;3.38;;;1.40;;
69253;SDS011;56364;41.816;12.448;2023-01-28T06:34:54;4.03;;;1.60;;
69253;SDS011;56364;41.816;12.448;2023-01-28T06:37:21;5.43;;;1.70;;
69253;SDS011;56364;41.816;12.448;2023-01-28T06:39:47;3.78;;;1.65;;
69253;SDS011;56364;41.816;12.448;2023-01-28T06:42:13;2.75;;;1.30;;
69253;SDS011;56364;41.816;12.448;2023-01-28T06:44:39;5.65;;;1.92;;
69253;SDS011;56364;41.816;12.448;2023-01-28T06:47:05;4.60;;;1.65;;
69253;SDS011;56364;41.816;12.448;2023-01-28T06:49:33;2.63;;;1.52;;
69253;SDS011;56364;41.816;12.448;2023-01-28T06:51:59;4.57;;;1.52;;
69253;SDS011;56364;41.816;12.448;2023-01-28T06:54:25;9.68;;;2.28;;
69253;SDS011;56364;41.816;12.448;2023-01-28T06:56:51;5.30;;;2.28;;
69253;SDS011;56364;41.816;12.448;2023-01-28T06:59:17;8.70;;;2.03;;
69253;SDS011;56364;41.816;12.448;2023-01-28T07:01:43;4.00;;;1.60;;
69253;SDS011;56364;41.816;12.448;2023-01-28T07:04:09;4.47;;;1.83;;
69253;SDS011;56364;41.816;12.448;2023-01-28T07:06:35;4.82;;;1.45;;
69253;SDS011;56364;41.816;12.448;2023-01-28T07:09:01;10.93;;;2.35;;
69253;SDS011;56364;41.816;12.448;2023-01-28T07:11:27;4.13;;;1.48;;
69253;SDS011;56364;41.816;12.448;2023-01-28T07:13:53;3.85;;;1.70;;
69253;SDS011;56364;41.816;12.448;2023-01-28T07:16:19;5.53;;;1.83;;
69253;SDS011;56364;41.816;12.448;2023-01-28T07:18:45;7.90;;;2.40;;
69253;SDS011;56364;41.816;12.448;2023-01-28T07:21:11;6.25;;;3.05;;
69253;SDS011;56364;41.816;12.448;2023-01-28T07:23:38;4.85;;;2.10;;
69253;SDS011;56364;41.816;12.448;2023-01-28T07:26:04;4.57;;;2.13;;
69253;SDS011;56364;41.816;12.448;2023-01-28T07:31:12;2.05;;;1.30;;
69253;SDS011;56364;41.816;12.448;2023-01-28T07:33:38;4.18;;;1.40;;
69253;SDS011;56364;41.816;12.448;2023-01-28T07:36:04;6.75;;;3.00;;
69253;SDS011;56364;41.816;12.448;2023-01-28T07:38:30;4.90;;;2.20;;
69253;SDS011;56364;41.816;12.448;2023-01-28T07:40:56;6.78;;;2.55;;
69253;SDS011;56364;41.816;12.448;2023-01-28T07:43:22;5.10;;;2.05;;
69253;SDS011;56364;41.816;12.448;2023-01-28T07:45:48;5.15;;;1.77;;
69253;SDS011;56364;41.816;12.448;2023-01-28T07:48:15;4.57;;;2.28;;
69253;SDS011;56364;41.816;12.448;2023-01-28T07:50:41;5.05;;;1.83;;
69253;SDS011;56364;41.816;12.448;2023-01-28T07:53:08;6.00;;;1.90;;
69253;SDS011;56364;41.816;12.448;2023-01-28T07:55:35;9.85;;;2.00;;
69253;SDS011;56364;41.816;12.448;2023-01-28T07:58:07;6.13;;;2.33;;
69253;SDS011;56364;41.816;12.448;2023-01-28T08:00:36;13.50;;;4.72;;
69253;SDS011;56364;41.816;12.448;2023-01-28T08:03:04;6.30;;;2.67;;
69253;SDS011;56364;41.816;12.448;2023-01-28T08:05:35;3.47;;;1.67;;
69253;SDS011;56364;41.816;12.448;2023-01-28T08:08:03;5.80;;;2.03;;
69253;SDS011;56364;41.816;12.448;2023-01-28T08:10:29;7.20;;;2.35;;
69253;SDS011;56364;41.816;12.448;2023-01-28T08:12:56;3.92;;;1.58;;
69253;SDS011;56364;41.816;12.448;2023-01-28T08:15:23;2.42;;;1.25;;
69253;SDS011;56364;41.816;12.448;2023-01-28T08:17:52;4.50;;;2.20;;
69253;SDS011;56364;41.816;12.448;2023-01-28T08:20:18;6.05;;;1.90;;
69253;SDS011;56364;41.816;12.448;2023-01-28T08:22:44;4.00;;;1.98;;
69253;SDS011;56364;41.816;12.448;2023-01-28T08:25:10;4.78;;;2.03;;
69253;SDS011;56364;41.816;12.448;2023-01-28T08:27:36;5.03;;;2.10;;
69253;SDS011;56364;41.816;12.448;2023-01-28T08:30:02;6.43;;;2.03;;
69253;SDS011;56364;41.816;12.448;2023-01-28T08:32:29;4.53;;;1.95;;
69253;SDS011;56364;41.816;12.448;2023-01-28T08:34:55;4.05;;;1.75;;
69253;SDS011;56364;41.816;12.448;2023-01-28T08:37:21;3.63;;;1.55;;
69253;SDS011;56364;41.816;12.448;2023-01-28T08:39:50;3.10;;;1.58;;
69253;SDS011;56364;41.816;12.448;2023-01-28T08:42:17;5.22;;;2.05;;
69253;SDS011;56364;41.816;12.448;2023-01-28T08:44:43;3.08;;;1.45;;
69253;SDS011;56364;41.816;12.448;2023-01-28T08:47:09;5.50;;;2.35;;
69253;SDS011;56364;41.816;12.448;2023-01-28T08:49:35;1.63;;;0.98;;
69253;SDS011;56364;41.816;12.448;2023-01-28T08:52:01;5.60;;;1.75;;
69253;SDS011;56364;41.816;12.448;2023-01-28T08:54:27;3.47;;;1.75;;
69253;SDS011;56364;41.816;12.448;2023-01-28T08:56:53;5.13;;;1.95;;
69253;SDS011;56364;41.816;12.448;2023-01-28T08:59:19;3.15;;;1.58;;
69253;SDS011;56364;41.816;12.448;2023-01-28T09:01:45;5.63;;;1.95;;
69253;SDS011;56364;41.816;12.448;2023-01-28T09:04:12;3.65;;;1.77;;
69253;SDS011;56364;41.816;12.448;2023-01-28T09:06:39;5.40;;;1.95;;
69253;SDS011;56364;41.816;12.448;2023-01-28T09:09:05;4.82;;;2.10;;
69253;SDS011;56364;41.816;12.448;2023-01-28T09:11:31;6.72;;;2.72;;
69253;SDS011;56364;41.816;12.448;2023-01-28T09:13:58;5.18;;;1.83;;
69253;SDS011;56364;41.816;12.448;2023-01-28T09:16:25;6.60;;;2.03;;
69253;SDS011;56364;41.816;12.448;2023-01-28T09:18:52;5.40;;;2.13;;
69253;SDS011;56364;41.816;12.448;2023-01-28T09:21:18;4.88;;;1.92;;
69253;SDS011;56364;41.816;12.448;2023-01-28T09:23:46;5.15;;;2.33;;
69253;SDS011;56364;41.816;12.448;2023-01-28T09:26:12;6.35;;;1.90;;
69253;SDS011;56364;41.816;12.448;2023-01-28T09:28:38;5.03;;;1.90;;
69253;SDS011;56364;41.816;12.448;2023-01-28T09:31:06;5.32;;;1.63;;
69253;SDS011;56364;41.816;12.448;2023-01-28T09:33:32;5.18;;;2.08;;
69253;SDS011;56364;41.816;12.448;2023-01-28T09:36:01;4.80;;;2.00;;
69253;SDS011;56364;41.816;12.448;2023-01-28T09:38:30;4.53;;;2.05;;
69253;SDS011;56364;41.816;12.448;2023-01-28T09:40:56;5.20;;;2.55;;
69253;SDS011;56364;41.816;12.448;2023-01-28T09:46:09;5.60;;;2.05;;
69253;SDS011;56364;41.816;12.448;2023-01-28T09:48:37;3.75;;;1.67;;
69253;SDS011;56364;41.816;12.448;2023-01-28T09:51:07;5.00;;;1.80;;
69253;SDS011;56364;41.816;12.448;2023-01-28T09:53:36;6.07;;;2.08;;
69253;SDS011;56364;41.816;12.448;2023-01-28T09:56:12;7.00;;;2.28;;
69253;SDS011;56364;41.816;12.448;2023-01-28T09:58:40;16.23;;;6.32;;
69253;SDS011;56364;41.816;12.448;2023-01-28T10:09:08;5.78;;;2.60;;
69253;SDS011;56364;41.816;12.448;2023-01-28T10:14:07;7.18;;;2.28;;
69253;SDS011;56364;41.816;12.448;2023-01-28T10:16:42;7.72;;;2.28;;
69253;SDS011;56364;41.816;12.448;2023-01-28T10:19:15;4.28;;;1.70;;
69253;SDS011;56364;41.816;12.448;2023-01-28T10:24:14;5.35;;;2.33;;
69253;SDS011;56364;41.816;12.448;2023-01-28T10:26:42;4.32;;;1.70;;
69253;SDS011;56364;41.816;12.448;2023-01-28T10:29:19;7.50;;;2.35;;
69253;SDS011;56364;41.816;12.448;2023-01-28T10:31:50;6.28;;;2.80;;
69253;SDS011;56364;41.816;12.448;2023-01-28T10:34:17;7.30;;;2.85;;
69253;SDS011;56364;41.816;12.448;2023-01-28T10:36:43;9.05;;;2.60;;
69253;SDS011;56364;41.816;12.448;2023-01-28T10:39:10;7.82;;;2.38;;
69253;SDS011;56364;41.816;12.448;2023-01-28T10:41:38;5.93;;;2.38;;
69253;SDS011;56364;41.816;12.448;2023-01-28T10:44:04;5.18;;;2.20;;
69253;SDS011;56364;41.816;12.448;2023-01-28T10:46:31;12.45;;;2.53;;
69253;SDS011;56364;41.816;12.448;2023-01-28T10:51:35;6.45;;;2.65;;
69253;SDS011;56364;41.816;12.448;2023-01-28T10:54:02;8.18;;;1.95;;
69253;SDS011;56364;41.816;12.448;2023-01-28T10:56:30;5.22;;;2.15;;
69253;SDS011;56364;41.816;12.448;2023-01-28T11:01:24;6.00;;;2.17;;
69253;SDS011;56364;41.816;12.448;2023-01-28T11:03:52;5.03;;;2.13;;
69253;SDS011;56364;41.816;12.448;2023-01-28T11:06:23;6.32;;;2.35;;
69253;SDS011;56364;41.816;12.448;2023-01-28T11:08:50;5.43;;;2.20;;
69253;SDS011;56364;41.816;12.448;2023-01-28T11:11:21;4.88;;;2.35;;
69253;SDS011;56364;41.816;12.448;2023-01-28T11:16:17;3.35;;;2.00;;
69253;SDS011;56364;41.816;12.448;2023-01-28T11:18:54;4.88;;;2.40;;
69253;SDS011;56364;41.816;12.448;2023-01-28T11:21:24;4.60;;;2.28;;
69253;SDS011;56364;41.816;12.448;2023-01-28T11:23:52;8.98;;;2.83;;
69253;SDS011;56364;41.816;12.448;2023-01-28T11:26:23;3.45;;;1.75;;
69253;SDS011;56364;41.816;12.448;2023-01-28T11:28:50;7.18;;;2.15;;
69253;SDS011;56364;41.816;12.448;2023-01-28T11:33:46;4.60;;;1.90;;
69253;SDS011;56364;41.816;12.448;2023-01-28T11:38:50;5.78;;;2.20;;
69253;SDS011;56364;41.816;12.448;2023-01-28T11:41:21;5.15;;;2.15;;
69253;SDS011;56364;41.816;12.448;2023-01-28T11:43:48;3.78;;;1.88;;
69253;SDS011;56364;41.816;12.448;2023-01-28T11:46:34;6.80;;;2.28;;
69253;SDS011;56364;41.816;12.448;2023-01-28T11:51:39;4.68;;;2.30;;
69253;SDS011;56364;41.816;12.448;2023-01-28T11:56:55;4.63;;;1.95;;
69253;SDS011;56364;41.816;12.448;2023-01-28T12:17:33;7.30;;;3.05;;
69253;SDS011;56364;41.816;12.448;2023-01-28T12:28:02;6.88;;;2.53;;
69253;SDS011;56364;41.816;12.448;2023-01-28T12:30:37;5.03;;;2.30;;
69253;SDS011;56364;41.816;12.448;2023-01-28T12:35:55;5.28;;;2.53;;
69253;SDS011;56364;41.816;12.448;2023-01-28T12:41:15;5.13;;;2.40;;
69253;SDS011;56364;41.816;12.448;2023-01-28T12:51:27;5.13;;;2.10;;
69253;SDS011;56364;41.816;12.448;2023-01-28T12:56:22;4.75;;;1.92;;
69253;SDS011;56364;41.816;12.448;2023-01-28T12:58:54;6.53;;;3.13;;
69253;SDS011;56364;41.816;12.448;2023-01-28T13:01:23;8.68;;;2.55;;
69253;SDS011;56364;41.816;12.448;2023-01-28T13:06:27;7.90;;;2.85;;
69253;SDS011;56364;41.816;12.448;2023-01-28T13:08:55;6.18;;;2.78;;
69253;SDS011;56364;41.816;12.448;2023-01-28T13:11:23;6.97;;;2.60;;
69253;SDS011;56364;41.816;12.448;2023-01-28T13:16:15;7.70;;;2.90;;
69253;SDS011;56364;41.816;12.448;2023-01-28T13:18:47;7.50;;;2.75;;
69253;SDS011;56364;41.816;12.448;2023-01-28T13:23:49;6.68;;;2.47;;
69253;SDS011;56364;41.816;12.448;2023-01-28T13:28:44;9.20;;;3.20;;
69253;SDS011;56364;41.816;12.448;2023-01-28T13:31:11;7.15;;;2.40;;
69253;SDS011;56364;41.816;12.448;2023-01-28T13:33:41;6.10;;;2.75;;
69253;SDS011;56364;41.816;12.448;2023-01-28T13:38:46;8.65;;;3.15;;
69253;SDS011;56364;41.816;12.448;2023-01-28T13:43:39;11.20;;;2.67;;
69253;SDS011;56364;41.816;12.448;2023-01-28T13:46:07;4.90;;;2.38;;
69253;SDS011;56364;41.816;12.448;2023-01-28T13:48:49;8.07;;;2.95;;
69253;SDS011;56364;41.816;12.448;2023-01-28T13:51:19;9.25;;;3.20;;
69253;SDS011;56364;41.816;12.448;2023-01-28T13:53:53;8.88;;;2.95;;
69253;SDS011;56364;41.816;12.448;2023-01-28T13:56:28;7.07;;;2.58;;
69253;SDS011;56364;41.816;12.448;2023-01-28T13:59:17;8.60;;;2.88;;
69253;SDS011;56364;41.816;12.448;2023-01-28T14:10:26;10.65;;;2.63;;
69253;SDS011;56364;41.816;12.448;2023-01-28T14:13:11;10.32;;;2.63;;
69253;SDS011;56364;41.816;12.448;2023-01-28T14:21:31;6.80;;;2.63;;
69253;SDS011;56364;41.816;12.448;2023-01-28T14:23:58;7.38;;;2.85;;
69253;SDS011;56364;41.816;12.448;2023-01-28T14:31:43;9.18;;;3.22;;
69253;SDS011;56364;41.816;12.448;2023-01-28T14:37:07;8.73;;;3.28;;
69253;SDS011;56364;41.816;12.448;2023-01-28T14:39:44;7.70;;;2.85;;
69253;SDS011;56364;41.816;12.448;2023-01-28T14:42:22;7.78;;;3.13;;
69253;SDS011;56364;41.816;12.448;2023-01-28T14:45:03;7.60;;;3.40;;
69253;SDS011;56364;41.816;12.448;2023-01-28T14:47:35;5.20;;;2.38;;
69253;SDS011;56364;41.816;12.448;2023-01-28T14:57:40;10.07;;;3.15;;
69253;SDS011;56364;41.816;12.448;2023-01-28T15:00:21;10.02;;;3.33;;
69253;SDS011;56364;41.816;12.448;2023-01-28T15:02:48;9.25;;;3.05;;
69253;SDS011;56364;41.816;12.448;2023-01-28T15:05:18;8.50;;;3.45;;
69253;SDS011;56364;41.816;12.448;2023-01-28T15:07:45;8.77;;;3.30;;
69253;SDS011;56364;41.816;12.448;2023-01-28T15:10:14;7.93;;;3.00;;
69253;SDS011;56364;41.816;12.448;2023-01-28T15:12:49;9.43;;;2.97;;
69253;SDS011;56364;41.816;12.448;2023-01-28T15:15:18;8.20;;;3.20;;
69253;SDS011;56364;41.816;12.448;2023-01-28T15:17:46;8.98;;;3.30;;
69253;SDS011;56364;41.816;12.448;2023-01-28T15:20:17;9.45;;;3.28;;
69253;SDS011;56364;41.816;12.448;2023-01-28T15:22:44;5.95;;;2.90;;
69253;SDS011;56364;41.816;12.448;2023-01-28T15:25:20;9.43;;;3.83;;
69253;SDS011;56364;41.816;12.448;2023-01-28T15:27:46;5.78;;;3.05;;
69253;SDS011;56364;41.816;12.448;2023-01-28T15:48:17;8.25;;;3.10;;
69253;SDS011;56364;41.816;12.448;2023-01-28T15:50:43;9.20;;;3.42;;
69253;SDS011;56364;41.816;12.448;2023-01-28T15:53:10;11.90;;;3.83;;
69253;SDS011;56364;41.816;12.448;2023-01-28T15:55:42;11.32;;;3.80;;
69253;SDS011;56364;41.816;12.448;2023-01-28T15:58:24;10.55;;;3.83;;
69253;SDS011;56364;41.816;12.448;2023-01-28T16:01:00;10.65;;;3.75;;
69253;SDS011;56364;41.816;12.448;2023-01-28T16:03:27;14.77;;;4.70;;
69253;SDS011;56364;41.816;12.448;2023-01-28T16:06:00;8.80;;;3.72;;
69253;SDS011;56364;41.816;12.448;2023-01-28T16:26:38;7.63;;;3.28;;
69253;SDS011;56364;41.816;12.448;2023-01-28T16:29:11;6.47;;;3.38;;
69253;SDS011;56364;41.816;12.448;2023-01-28T16:31:40;8.52;;;3.20;;
69253;SDS011;56364;41.816;12.448;2023-01-28T16:34:11;8.38;;;4.18;;
69253;SDS011;56364;41.816;12.448;2023-01-28T16:36:37;7.28;;;3.45;;
69253;SDS011;56364;41.816;12.448;2023-01-28T16:39:03;8.95;;;4.07;;
69253;SDS011;56364;41.816;12.448;2023-01-28T16:41:31;8.30;;;3.92;;
69253;SDS011;56364;41.816;12.448;2023-01-28T16:43:57;9.75;;;4.18;;
69253;SDS011;56364;41.816;12.448;2023-01-28T16:46:29;9.52;;;4.40;;
69253;SDS011;56364;41.816;12.448;2023-01-28T16:48:55;13.73;;;4.40;;
69253;SDS011;56364;41.816;12.448;2023-01-28T16:51:30;11.60;;;4.22;;
69253;SDS011;56364;41.816;12.448;2023-01-28T16:53:56;8.38;;;3.67;;
69253;SDS011;56364;41.816;12.448;2023-01-28T16:56:23;9.32;;;3.53;;
69253;SDS011;56364;41.816;12.448;2023-01-28T16:58:51;8.32;;;4.03;;
69253;SDS011;56364;41.816;12.448;2023-01-28T17:01:17;9.55;;;3.90;;
69253;SDS011;56364;41.816;12.448;2023-01-28T17:03:43;9.20;;;4.20;;
69253;SDS011;56364;41.816;12.448;2023-01-28T17:06:17;12.93;;;4.65;;
69253;SDS011;56364;41.816;12.448;2023-01-28T17:08:43;11.60;;;4.72;;
69253;SDS011;56364;41.816;12.448;2023-01-28T17:11:09;13.32;;;4.78;;
69253;SDS011;56364;41.816;12.448;2023-01-28T17:13:36;12.80;;;5.25;;
69253;SDS011;56364;41.816;12.448;2023-01-28T17:16:03;11.50;;;4.32;;
69253;SDS011;56364;41.816;12.448;2023-01-28T17:18:29;9.90;;;4.03;;
69253;SDS011;56364;41.816;12.448;2023-01-28T17:21:02;14.75;;;4.18;;
69253;SDS011;56364;41.816;12.448;2023-01-28T17:23:31;12.07;;;3.80;;
69253;SDS011;56364;41.816;12.448;2023-01-28T17:26:04;14.23;;;4.22;;
69253;SDS011;56364;41.816;12.448;2023-01-28T17:28:30;11.35;;;4.15;;
69253;SDS011;56364;41.816;12.448;2023-01-28T17:31:03;8.60;;;4.22;;
69253;SDS011;56364;41.816;12.448;2023-01-28T17:33:29;12.40;;;4.82;;
69253;SDS011;56364;41.816;12.448;2023-01-28T17:35:56;12.90;;;4.25;;
69253;SDS011;56364;41.816;12.448;2023-01-28T17:38:31;11.63;;;4.55;;
69253;SDS011;56364;41.816;12.448;2023-01-28T17:41:04;11.98;;;4.72;;
69253;SDS011;56364;41.816;12.448;2023-01-28T17:43:31;7.85;;;3.53;;
69253;SDS011;56364;41.816;12.448;2023-01-28T17:45:58;14.55;;;5.05;;
69253;SDS011;56364;41.816;12.448;2023-01-28T17:48:24;7.18;;;3.70;;
69253;SDS011;56364;41.816;12.448;2023-01-28T17:50:57;12.30;;;4.30;;
69253;SDS011;56364;41.816;12.448;2023-01-28T17:53:25;14.23;;;4.68;;
69253;SDS011;56364;41.816;12.448;2023-01-28T17:55:51;19.27;;;5.35;;
69253;SDS011;56364;41.816;12.448;2023-01-28T17:58:20;12.60;;;5.25;;
69253;SDS011;56364;41.816;12.448;2023-01-28T18:00:55;11.18;;;4.47;;
69253;SDS011;56364;41.816;12.448;2023-01-28T18:03:21;14.27;;;5.15;;
69253;SDS011;56364;41.816;12.448;2023-01-28T18:05:56;14.00;;;4.50;;
69253;SDS011;56364;41.816;12.448;2023-01-28T18:08:23;15.15;;;5.68;;
69253;SDS011;56364;41.816;12.448;2023-01-28T18:10:49;12.57;;;5.38;;
69253;SDS011;56364;41.816;12.448;2023-01-28T18:13:15;13.13;;;5.20;;
69253;SDS011;56364;41.816;12.448;2023-01-28T18:18:18;18.80;;;6.13;;
69253;SDS011;56364;41.816;12.448;2023-01-28T18:20:44;12.90;;;6.18;;
69253;SDS011;56364;41.816;12.448;2023-01-28T18:23:10;11.10;;;6.03;;
69253;SDS011;56364;41.816;12.448;2023-01-28T18:25:48;12.25;;;6.03;;
69253;SDS011;56364;41.816;12.448;2023-01-28T18:28:14;17.55;;;5.95;;
69253;SDS011;56364;41.816;12.448;2023-01-28T18:30:40;13.75;;;6.10;;